In Rescue
 
Open Full Screen Window  High Contrast Mode
Wind Gusting 00 knots
06
October 19, 2020 7:47 PM CDT
Present Weather: Mist
Weather Information
Wind Direction
  120 °
Wind Speed
  06 kt (7 mph)
Wind Gust
  00 kt (0 mph)
Altimeter
30.22 in
Visibility
3 SM
Temperature
01° C
34° F
Dewpoint
00° C
32° F
Humidity
93%
1hr Rain Fall
00.00 in.
24hr Rain Fall
00.01 in.
Sky Condition
Overcast @ 800 ft
Broken @ 300 ft
LIFR

METAR KCNB 200047Z AUTO 12006KT 3SM BR BKN003 OVC008 01/00 A3022 RMK AO2 T00050001

FAA Disclaimer: The data displayed is for advisory purposes only and is not to be used for flight planning or operations.